Time;durP1;ratioP1;P1;durP2;ratioP2;P2;SDS_P1;SDS_P2;PMS_P1;PMS_P2;Temp;Humidity;BMP_temperature;BMP_pressure;BME280_temperature;BME280_humidity;BME280_pressure;Samples;Min_cycle;Max_cycle;Signal;HPM_P1;HPM_P2
2022/04/08 00:01:15;;;;;;;4.53;1.00;;;8.80;99.90;;;;;;5073915;28;20217;-64
2022/04/08 00:03:41;;;;;;;2.63;1.00;;;8.90;99.90;;;;;;5074332;28;20692;-64
2022/04/08 00:06:08;;;;;;;1.07;0.90;;;9.00;99.90;;;;;;5074709;28;20156;-65
2022/04/08 00:08:34;;;;;;;2.70;1.10;;;8.80;99.90;;;;;;5074663;28;20411;-65
2022/04/08 00:11:00;;;;;;;1.17;0.80;;;9.00;99.90;;;;;;5074204;28;20167;-65
2022/04/08 00:13:26;;;;;;;2.87;0.93;;;8.90;99.90;;;;;;5074010;28;20714;-65
2022/04/08 00:15:51;;;;;;;2.57;1.07;;;8.90;99.90;;;;;;5073839;28;20167;-64
2022/04/08 00:18:19;;;;;;;3.13;1.17;;;8.90;99.90;;;;;;5074054;28;20162;-64
2022/04/08 00:20:44;;;;;;;3.57;0.93;;;9.00;99.90;;;;;;5073800;28;20295;-64
2022/04/08 00:23:10;;;;;;;4.27;0.90;;;9.00;99.90;;;;;;5073977;28;20595;-65
2022/04/08 00:25:35;;;;;;;1.03;0.93;;;9.00;99.90;;;;;;5074220;28;20293;-64
2022/04/08 00:28:01;;;;;;;3.30;1.40;;;9.00;99.90;;;;;;5074929;28;20177;-64
2022/04/08 00:30:27;;;;;;;0.93;0.73;;;8.90;99.90;;;;;;5074770;28;20570;-66
2022/04/08 00:32:55;;;;;;;2.33;1.00;;;8.90;99.90;;;;;;5075361;28;20164;-64
2022/04/08 00:35:21;;;;;;;1.87;0.80;;;9.10;99.90;;;;;;5076909;28;20193;-65
2022/04/08 00:37:47;;;;;;;1.53;1.13;;;9.00;99.90;;;;;;5077851;28;20179;-65
2022/04/08 00:40:13;;;;;;;3.30;1.20;;;9.10;99.90;;;;;;5077074;28;20203;-65
2022/04/08 00:42:40;;;;;;;1.77;1.03;;;9.10;99.90;;;;;;5077748;28;20168;-64
2022/04/08 00:45:06;;;;;;;1.97;1.10;;;9.20;99.90;;;;;;5080128;28;20155;-65
2022/04/08 00:47:35;;;;;;;4.83;1.20;;;9.20;99.90;;;;;;5077906;28;20188;-65
2022/04/08 00:50:01;;;;;;;2.40;0.87;;;9.20;99.90;;;;;;5073268;28;20623;-64
2022/04/08 00:52:27;;;;;;;1.10;1.00;;;9.30;99.90;;;;;;5055819;28;20175;-65
2022/04/08 00:54:53;;;;;;;1.10;0.80;;;9.30;99.90;;;;;;5055275;28;20598;-65
2022/04/08 00:57:19;;;;;;;2.67;0.90;;;9.40;99.90;;;;;;5073611;28;20187;-64
2022/04/08 00:59:45;;;;;;;1.40;0.90;;;9.30;99.90;;;;;;5072363;28;20199;-64
2022/04/08 01:02:10;;;;;;;4.13;1.20;;;9.50;99.90;;;;;;5073527;28;20178;-64
2022/04/08 01:04:36;;;;;;;2.80;1.00;;;9.50;99.70;;;;;;5073555;28;20209;-63
2022/04/08 01:07:02;;;;;;;2.17;1.30;;;9.50;99.50;;;;;;5055428;28;20274;-65
2022/04/08 01:09:27;;;;;;;2.93;1.13;;;9.60;97.80;;;;;;5089533;28;20175;-66
2022/04/08 01:11:54;;;;;;;2.30;0.90;;;9.60;96.20;;;;;;5073336;28;20238;-65
2022/04/08 01:14:20;;;;;;;5.63;1.50;;;9.70;96.20;;;;;;5073397;28;20173;-66
2022/04/08 01:16:45;;;;;;;2.70;0.87;;;9.60;96.70;;;;;;5073053;28;20163;-66
2022/04/08 01:19:11;;;;;;;1.87;0.83;;;9.70;95.20;;;;;;5088951;28;20171;-64
2022/04/08 01:21:36;;;;;;;6.13;0.90;;;9.70;94.80;;;;;;5072490;28;20294;-65
2022/04/08 01:24:03;;;;;;;1.13;0.80;;;9.70;95.40;;;;;;5073159;28;20163;-64
2022/04/08 01:26:29;;;;;;;3.97;0.90;;;9.70;95.40;;;;;;5072864;28;20224;-65
2022/04/08 01:28:56;;;;;;;4.63;0.97;;;9.60;95.80;;;;;;5073237;28;20591;-64
2022/04/08 01:31:24;;;;;;;0.70;0.70;;;9.60;95.30;;;;;;5073385;28;20167;-65
2022/04/08 01:33:51;;;;;;;1.60;0.87;;;9.60;95.90;;;;;;5073150;28;20166;-65
2022/04/08 01:36:17;;;;;;;4.73;1.17;;;9.60;95.70;;;;;;5073561;28;20194;-65
2022/04/08 01:38:42;;;;;;;0.83;0.70;;;9.60;96.20;;;;;;5076338;28;20171;-66
2022/04/08 01:41:08;;;;;;;0.60;0.60;;;9.50;96.50;;;;;;5077092;28;20209;-66
2022/04/08 01:43:34;;;;;;;1.90;0.80;;;9.60;97.80;;;;;;5078649;28;20205;-66
2022/04/08 01:46:00;;;;;;;3.00;1.00;;;9.50;97.40;;;;;;5078192;28;20175;-65
2022/04/08 01:48:26;;;;;;;2.47;0.97;;;9.50;98.20;;;;;;5074189;28;20502;-65
2022/04/08 01:50:51;;;;;;;1.20;0.70;;;9.50;99.30;;;;;;5072791;28;20168;-66
2022/04/08 01:53:17;;;;;;;1.50;1.00;;;9.40;99.90;;;;;;5072804;28;20164;-67
2022/04/08 01:55:44;;;;;;;1.23;1.00;;;9.40;99.90;;;;;;5066290;28;20377;-66
2022/04/08 01:58:12;;;;;;;4.43;1.10;;;9.40;99.90;;;;;;5052288;28;20222;-66
2022/04/08 02:00:39;;;;;;;0.73;0.60;;;9.40;99.90;;;;;;5052766;28;20207;-64
2022/04/08 02:03:04;;;;;;;2.83;0.90;;;9.30;99.90;;;;;;5052574;28;20160;-65
2022/04/08 02:05:31;;;;;;;1.87;1.23;;;9.30;99.90;;;;;;5052806;28;20171;-65
2022/04/08 02:07:57;;;;;;;1.80;1.03;;;9.20;99.90;;;;;;5052837;28;20199;-66
2022/04/08 02:10:24;;;;;;;1.90;0.87;;;9.30;99.90;;;;;;5053155;28;20510;-66
2022/04/08 02:12:49;;;;;;;3.70;0.90;;;9.30;99.90;;;;;;5059534;28;20171;-65
2022/04/08 02:15:15;;;;;;;8.07;1.13;;;9.20;99.90;;;;;;5057155;28;20471;-64
2022/04/08 02:17:41;;;;;;;0.97;0.83;;;9.20;99.90;;;;;;5056255;28;20214;-65
2022/04/08 02:20:10;;;;;;;1.57;0.93;;;9.20;99.90;;;;;;5056896;28;20213;-65
2022/04/08 02:22:36;;;;;;;0.83;0.80;;;9.20;99.90;;;;;;5055940;28;20188;-64
2022/04/08 02:25:03;;;;;;;1.67;1.17;;;9.20;99.90;;;;;;5056455;28;20494;-64
2022/04/08 02:27:30;;;;;;;3.00;0.97;;;9.20;99.90;;;;;;5056437;28;20160;-65
2022/04/08 02:29:58;;;;;;;1.47;1.00;;;9.30;99.90;;;;;;5055950;28;20451;-65
2022/04/08 02:32:24;;;;;;;3.50;0.80;;;9.20;99.90;;;;;;5056123;28;20168;-64
2022/04/08 02:34:50;;;;;;;0.60;0.60;;;9.20;99.90;;;;;;5055842;28;20168;-65
2022/04/08 02:37:16;;;;;;;0.80;0.70;;;9.20;99.90;;;;;;5056255;28;20256;-64
2022/04/08 02:39:42;;;;;;;3.13;1.10;;;9.20;99.90;;;;;;5037703;28;20635;-64
2022/04/08 02:42:07;;;;;;;0.77;0.77;;;9.20;99.90;;;;;;5055877;28;20198;-64
2022/04/08 02:44:33;;;;;;;2.27;1.17;;;9.20;99.90;;;;;;5056026;28;20176;-64
2022/04/08 02:46:59;;;;;;;0.80;0.80;;;9.20;99.90;;;;;;5055869;28;20182;-65
2022/04/08 02:49:24;;;;;;;1.90;1.00;;;9.10;99.90;;;;;;5037970;28;20532;-64
2022/04/08 02:51:50;;;;;;;1.60;0.90;;;9.20;99.90;;;;;;5055149;28;20221;-64
2022/04/08 02:54:16;;;;;;;1.63;1.00;;;9.10;99.90;;;;;;5055756;28;20611;-64
2022/04/08 02:56:42;;;;;;;2.30;1.17;;;9.10;99.90;;;;;;5069678;28;20598;-66
2022/04/08 02:59:08;;;;;;;1.43;0.80;;;9.10;99.90;;;;;;5075423;28;20191;-67
2022/04/08 03:01:34;;;;;;;1.73;0.90;;;9.10;99.90;;;;;;5075338;28;20197;-64
2022/04/08 03:04:00;;;;;;;0.83;0.83;;;9.10;99.90;;;;;;5075515;28;20225;-64
2022/04/08 03:06:26;;;;;;;2.13;1.17;;;9.10;99.90;;;;;;5075510;28;20195;-65
2022/04/08 03:08:52;;;;;;;3.07;1.10;;;9.00;99.90;;;;;;5075379;28;20213;-65
2022/04/08 03:11:18;;;;;;;1.63;1.03;;;9.00;99.90;;;;;;5075683;28;20172;-64
2022/04/08 03:13:43;;;;;;;3.57;1.13;;;9.00;99.90;;;;;;5075948;28;20497;-64
2022/04/08 03:16:09;;;;;;;0.73;0.73;;;9.00;99.90;;;;;;5075142;28;20535;-64
2022/04/08 03:18:35;;;;;;;1.33;0.83;;;9.00;99.90;;;;;;5075516;28;20163;-65
2022/04/08 03:21:00;;;;;;;3.53;1.00;;;8.90;99.90;;;;;;5075423;28;20199;-65
2022/04/08 03:23:26;;;;;;;2.40;0.80;;;8.90;99.90;;;;;;5056620;28;20160;-65
2022/04/08 03:25:51;;;;;;;0.87;0.80;;;8.90;99.90;;;;;;5075357;28;20174;-66
2022/04/08 03:28:17;;;;;;;1.07;0.90;;;8.90;99.90;;;;;;5075910;28;20489;-65
2022/04/08 03:30:42;;;;;;;2.57;0.97;;;8.80;99.90;;;;;;5075423;28;20163;-67
2022/04/08 03:33:08;;;;;;;2.80;1.07;;;8.90;99.90;;;;;;5075134;28;20156;-64
2022/04/08 03:35:34;;;;;;;2.00;0.90;;;8.80;99.90;;;;;;5075468;28;20193;-64
2022/04/08 03:38:00;;;;;;;2.07;0.87;;;8.70;99.90;;;;;;5078082;28;20255;-65
2022/04/08 03:40:26;;;;;;;0.87;0.80;;;8.80;99.90;;;;;;5075591;28;20196;-65
2022/04/08 03:42:52;;;;;;;0.90;0.90;;;8.70;99.90;;;;;;5078368;28;20181;-65
2022/04/08 03:45:17;;;;;;;2.47;0.83;;;8.70;99.90;;;;;;5077122;28;20287;-65
2022/04/08 03:47:43;;;;;;;0.90;0.90;;;8.70;99.90;;;;;;5079286;28;20258;-66
2022/04/08 03:50:09;;;;;;;1.40;1.30;;;8.70;99.90;;;;;;5078681;28;20177;-64
2022/04/08 03:52:34;;;;;;;1.20;0.90;;;8.70;99.90;;;;;;5077007;28;20366;-65
2022/04/08 03:55:00;;;;;;;6.50;1.10;;;8.60;99.90;;;;;;5076416;28;20170;-65
2022/04/08 03:57:27;;;;;;;1.37;0.90;;;8.60;99.90;;;;;;5077023;28;20178;-65
2022/04/08 03:59:53;;;;;;;0.70;0.70;;;8.60;99.90;;;;;;5076331;28;20184;-66
2022/04/08 04:02:19;;;;;;;1.57;1.07;;;8.60;99.90;;;;;;5076819;28;20275;-65
2022/04/08 04:04:45;;;;;;;3.10;1.17;;;8.60;99.90;;;;;;5076919;28;20168;-64
2022/04/08 04:07:10;;;;;;;0.70;0.70;;;8.60;99.90;;;;;;5077278;28;20176;-66
2022/04/08 04:09:37;;;;;;;0.80;0.80;;;8.60;99.90;;;;;;5077620;28;20197;-66
2022/04/08 04:12:02;;;;;;;0.80;0.80;;;8.60;99.90;;;;;;5077644;28;20168;-66
2022/04/08 04:14:28;;;;;;;1.47;1.10;;;8.60;99.90;;;;;;5077118;28;20246;-64
2022/04/08 04:16:54;;;;;;;1.40;1.17;;;8.60;99.90;;;;;;5076408;28;20156;-65
2022/04/08 04:19:19;;;;;;;1.80;0.90;;;8.60;99.90;;;;;;5076777;28;20682;-65
2022/04/08 04:21:47;;;;;;;1.23;0.80;;;8.50;99.90;;;;;;5075523;28;20263;-64
2022/04/08 04:24:14;;;;;;;0.87;0.70;;;8.50;99.90;;;;;;5075149;28;20250;-66
2022/04/08 04:26:39;;;;;;;4.90;1.20;;;8.60;99.90;;;;;;5076609;28;20172;-66
2022/04/08 04:29:05;;;;;;;2.13;1.00;;;8.50;99.90;;;;;;5075702;28;20653;-65
2022/04/08 04:31:31;;;;;;;1.47;1.10;;;8.50;99.90;;;;;;5075049;28;20181;-65
2022/04/08 04:33:56;;;;;;;1.60;1.13;;;8.50;99.90;;;;;;5073925;28;20163;-67
2022/04/08 04:36:23;;;;;;;1.10;1.00;;;8.50;99.90;;;;;;5073990;28;20186;-65
2022/04/08 04:38:48;;;;;;;1.43;0.90;;;8.50;99.90;;;;;;5076330;28;20226;-66
2022/04/08 04:41:15;;;;;;;2.00;1.30;;;8.40;99.90;;;;;;5074912;28;20637;-67
2022/04/08 04:43:41;;;;;;;1.80;1.33;;;8.40;99.90;;;;;;5074861;28;20170;-67
2022/04/08 04:46:07;;;;;;;1.37;1.10;;;8.50;99.90;;;;;;5074668;28;20261;-67
2022/04/08 04:48:32;;;;;;;1.50;1.10;;;8.50;99.90;;;;;;5056910;28;20209;-69
2022/04/08 04:50:58;;;;;;;0.93;0.93;;;8.60;99.90;;;;;;5075920;28;20166;-70
2022/04/08 04:53:24;;;;;;;2.17;1.10;;;8.50;99.90;;;;;;5075236;28;20162;-66
2022/04/08 04:55:50;;;;;;;1.10;1.00;;;8.60;99.90;;;;;;5075647;28;20225;-65
2022/04/08 04:58:16;;;;;;;1.57;1.20;;;8.70;99.90;;;;;;5075917;28;20162;-66
2022/04/08 05:00:41;;;;;;;2.33;1.23;;;8.60;99.90;;;;;;5076012;28;20224;-65
2022/04/08 05:03:08;;;;;;;1.83;1.10;;;8.60;99.90;;;;;;5077445;28;20160;-66
2022/04/08 05:05:34;;;;;;;5.90;1.37;;;8.60;99.90;;;;;;5079415;28;20608;-65
2022/04/08 05:08:02;;;;;;;1.80;1.27;;;8.60;99.90;;;;;;5077100;28;20166;-64
2022/04/08 05:10:29;;;;;;;3.67;1.80;;;8.60;99.90;;;;;;5077934;28;20165;-66
2022/04/08 05:12:55;;;;;;;1.80;1.30;;;8.60;99.90;;;;;;5079827;28;20253;-66
2022/04/08 05:15:21;;;;;;;1.93;1.10;;;8.60;99.90;;;;;;5081706;28;20210;-66
2022/04/08 05:17:46;;;;;;;5.10;1.37;;;8.60;99.90;;;;;;5082348;28;20171;-66
2022/04/08 05:20:12;;;;;;;1.17;1.00;;;8.60;99.90;;;;;;5080121;28;20205;-66
2022/04/08 05:22:41;;;;;;;1.13;1.10;;;8.60;99.90;;;;;;5078835;28;20219;-67
2022/04/08 05:25:07;;;;;;;3.33;1.50;;;8.50;99.90;;;;;;5078254;28;20162;-66
2022/04/08 05:27:37;;;;;;;7.97;1.20;;;8.50;99.90;;;;;;5076735;28;20340;-66
2022/04/08 05:30:08;;;;;;;1.30;1.10;;;8.50;99.90;;;;;;5056285;28;20229;-66
2022/04/08 05:32:33;;;;;;;1.07;0.97;;;8.50;99.90;;;;;;5072427;28;20177;-65
2022/04/08 05:34:59;;;;;;;0.93;0.93;;;8.50;99.90;;;;;;5073309;28;20173;-66
2022/04/08 05:37:25;;;;;;;1.27;1.17;;;8.50;99.90;;;;;;5073386;28;20183;-65
2022/04/08 05:39:53;;;;;;;1.27;1.10;;;8.60;99.90;;;;;;5072196;28;20174;-65
2022/04/08 05:42:19;;;;;;;1.60;1.30;;;8.60;99.90;;;;;;5072692;28;20157;-64
2022/04/08 05:44:44;;;;;;;3.50;1.13;;;8.60;99.90;;;;;;5072677;28;20271;-66
2022/04/08 05:47:10;;;;;;;3.20;1.30;;;8.60;99.90;;;;;;5075348;28;20252;-67
2022/04/08 05:49:36;;;;;;;1.23;1.10;;;8.60;99.90;;;;;;5076880;28;20175;-66
2022/04/08 05:52:02;;;;;;;2.10;1.07;;;8.60;99.90;;;;;;5076513;28;20272;-67
2022/04/08 05:54:28;;;;;;;2.27;1.10;;;8.70;99.90;;;;;;5077084;28;20164;-67
2022/04/08 05:56:54;;;;;;;1.67;1.20;;;8.70;99.90;;;;;;5077509;28;20374;-67
2022/04/08 05:59:19;;;;;;;2.40;1.10;;;8.70;99.90;;;;;;5077018;28;20171;-66
2022/04/08 06:01:45;;;;;;;1.90;1.20;;;8.70;99.90;;;;;;5076693;28;20200;-67
2022/04/08 06:04:10;;;;;;;2.00;0.97;;;8.90;99.90;;;;;;5077317;28;20493;-67
2022/04/08 06:06:38;;;;;;;1.20;1.10;;;8.80;99.90;;;;;;5093017;28;20291;-67
2022/04/08 06:09:04;;;;;;;1.70;1.20;;;8.80;99.90;;;;;;5077073;28;20158;-65
2022/04/08 06:11:30;;;;;;;1.60;1.10;;;8.80;99.90;;;;;;5077199;28;20227;-66
2022/04/08 06:13:56;;;;;;;4.10;1.50;;;9.00;99.90;;;;;;5077198;28;20525;-67
2022/04/08 06:16:25;;;;;;;3.17;1.40;;;9.00;99.90;;;;;;5077370;28;20494;-65
2022/04/08 06:18:51;;;;;;;1.20;1.10;;;9.00;99.90;;;;;;5076524;28;20196;-66
2022/04/08 06:21:16;;;;;;;1.57;1.20;;;9.00;99.90;;;;;;5075986;28;20214;-67
2022/04/08 06:23:42;;;;;;;1.73;1.20;;;8.90;99.90;;;;;;5076108;28;20247;-67
2022/04/08 06:26:09;;;;;;;1.43;1.20;;;8.90;99.90;;;;;;5092429;28;20171;-66
2022/04/08 06:28:34;;;;;;;1.20;1.10;;;9.00;99.90;;;;;;5079028;28;20263;-66
2022/04/08 06:31:00;;;;;;;1.47;1.10;;;9.00;99.90;;;;;;5076866;28;20171;-65
2022/04/08 06:33:26;;;;;;;5.87;1.23;;;8.90;99.90;;;;;;5076299;28;20478;-67
2022/04/08 06:35:51;;;;;;;5.10;1.53;;;8.90;99.90;;;;;;5076263;28;20202;-67
2022/04/08 06:38:17;;;;;;;1.77;1.13;;;8.90;99.90;;;;;;5092054;28;20210;-66
2022/04/08 06:40:43;;;;;;;1.90;1.17;;;9.00;99.90;;;;;;5075939;28;20281;-67
2022/04/08 06:43:08;;;;;;;1.10;1.00;;;9.00;99.90;;;;;;5076475;28;20159;-65
2022/04/08 06:45:35;;;;;;;1.20;1.00;;;9.10;99.90;;;;;;5076255;28;20169;-67
2022/04/08 06:48:01;;;;;;;1.10;1.00;;;9.10;99.90;;;;;;5076336;28;20164;-65
2022/04/08 06:50:28;;;;;;;3.40;1.10;;;9.20;99.90;;;;;;5076568;28;20202;-67
2022/04/08 06:52:59;;;;;;;1.80;1.23;;;9.30;99.90;;;;;;5075871;28;20232;-65
2022/04/08 06:55:25;;;;;;;1.90;1.40;;;9.20;99.90;;;;;;5075669;28;20309;-64
2022/04/08 06:57:51;;;;;;;1.50;1.40;;;9.20;99.90;;;;;;5076246;28;20167;-64
2022/04/08 07:00:16;;;;;;;6.33;1.20;;;9.30;99.90;;;;;;5075516;28;20687;-66
2022/04/08 07:02:42;;;;;;;3.20;1.20;;;9.20;99.90;;;;;;5075797;28;20661;-66
2022/04/08 07:05:08;;;;;;;1.40;1.07;;;9.30;99.90;;;;;;5075832;28;20475;-65
2022/04/08 07:07:36;;;;;;;1.17;1.00;;;9.40;99.90;;;;;;5075946;28;20615;-65
2022/04/08 07:10:03;;;;;;;3.07;1.10;;;9.50;99.90;;;;;;5075524;28;20173;-66
2022/04/08 07:12:29;;;;;;;1.23;1.13;;;9.50;99.90;;;;;;5074938;28;20184;-66
2022/04/08 07:14:55;;;;;;;1.80;0.90;;;9.60;99.90;;;;;;5075857;28;20181;-65
2022/04/08 07:17:34;;;;;;;1.23;1.00;;;9.70;99.90;;;;;;5075758;28;20262;-66
2022/04/08 07:20:00;;;;;;;3.80;1.17;;;10.00;99.90;;;;;;5075466;28;20173;-66
2022/04/08 07:22:26;;;;;;;1.30;1.20;;;10.20;99.90;;;;;;5075651;28;20250;-66
2022/04/08 07:24:53;;;;;;;3.60;1.10;;;10.20;99.90;;;;;;5075397;28;20179;-66
2022/04/08 07:27:20;;;;;;;1.20;1.10;;;10.10;99.90;;;;;;5075698;28;20171;-67
2022/04/08 07:29:46;;;;;;;1.47;0.90;;;10.00;99.90;;;;;;5075634;28;20160;-67
2022/04/08 07:32:12;;;;;;;2.03;1.00;;;9.90;99.90;;;;;;5076146;28;20165;-67
2022/04/08 07:34:38;;;;;;;2.80;0.80;;;9.90;99.90;;;;;;5075383;28;20164;-67
2022/04/08 07:37:04;;;;;;;0.83;0.80;;;9.90;99.90;;;;;;5091090;28;20214;-66
2022/04/08 07:39:30;;;;;;;1.23;0.70;;;9.80;99.90;;;;;;5074787;28;20188;-65
2022/04/08 07:41:56;;;;;;;1.73;0.90;;;9.90;99.90;;;;;;5074501;28;20584;-67
2022/04/08 07:44:22;;;;;;;1.30;1.00;;;10.00;98.50;;;;;;5074541;28;20156;-66
2022/04/08 07:46:48;;;;;;;1.43;1.00;;;10.20;97.90;;;;;;5075182;28;20198;-66
2022/04/08 07:49:13;;;;;;;1.63;1.10;;;10.40;97.60;;;;;;5074490;28;20202;-66
2022/04/08 07:51:41;;;;;;;5.50;1.00;;;10.30;98.00;;;;;;5075800;28;20168;-66
2022/04/08 07:54:07;;;;;;;1.40;1.07;;;10.40;97.70;;;;;;5078897;28;20154;-65
2022/04/08 07:56:35;;;;;;;2.10;1.00;;;10.30;97.40;;;;;;5078494;28;20269;-67
2022/04/08 07:59:01;;;;;;;1.13;0.93;;;10.30;97.70;;;;;;5078181;28;20584;-65
2022/04/08 08:01:27;;;;;;;0.90;0.90;;;10.30;96.90;;;;;;5076727;28;20199;-68
2022/04/08 08:03:52;;;;;;;0.70;0.70;;;10.30;97.10;;;;;;5076419;28;20580;-64
2022/04/08 08:06:18;;;;;;;1.77;0.90;;;10.30;97.00;;;;;;5074733;28;20199;-65
2022/04/08 08:08:44;;;;;;;1.60;1.10;;;10.40;96.00;;;;;;5073371;28;20178;-66
2022/04/08 08:11:12;;;;;;;0.83;0.80;;;10.60;96.10;;;;;;5074726;28;20214;-65
2022/04/08 08:13:39;;;;;;;2.97;1.03;;;10.40;94.60;;;;;;5073648;28;20217;-66
2022/04/08 08:16:07;;;;;;;0.70;0.70;;;10.30;95.00;;;;;;5074256;28;20595;-64
2022/04/08 08:18:33;;;;;;;3.23;1.03;;;10.40;93.20;;;;;;5074528;28;20498;-65
2022/04/08 08:20:58;;;;;;;1.43;1.10;;;10.20;93.40;;;;;;5074424;28;20202;-66
2022/04/08 08:23:24;;;;;;;0.97;0.90;;;10.10;93.10;;;;;;5074205;28;20179;-66
2022/04/08 08:25:50;;;;;;;1.23;1.00;;;10.20;93.40;;;;;;5073524;28;20203;-65
2022/04/08 08:28:15;;;;;;;1.37;0.90;;;10.30;93.90;;;;;;5074338;28;20180;-65
2022/04/08 08:30:41;;;;;;;4.40;1.00;;;10.20;94.20;;;;;;5074213;28;20323;-64
2022/04/08 08:33:06;;;;;;;1.00;0.90;;;10.40;93.90;;;;;;5074458;28;20502;-65
2022/04/08 08:38:12;;;;;;;1.50;1.10;;;10.70;96.20;;;;;;5132968;27;20542;-66
2022/04/08 08:40:43;;;;;;;1.73;0.90;;;10.60;90.40;;;;;;5112087;28;20640;-66
2022/04/08 08:43:08;;;;;;;1.00;0.90;;;10.60;90.50;;;;;;5111312;28;20223;-66
2022/04/08 08:45:35;;;;;;;1.30;1.20;;;10.60;90.10;;;;;;5111326;28;20594;-65
2022/04/08 08:48:03;;;;;;;1.60;0.83;;;10.60;87.60;;;;;;5111934;28;20159;-65
2022/04/08 08:50:29;;;;;;;0.70;0.70;;;10.40;89.30;;;;;;5111004;28;20193;-66
2022/04/08 08:52:55;;;;;;;1.57;1.10;;;10.40;89.40;;;;;;5111449;28;20173;-65
2022/04/08 08:55:21;;;;;;;0.93;0.93;;;10.80;89.90;;;;;;5111438;28;20511;-65
2022/04/08 08:57:51;;;;;;;2.33;0.80;;;10.80;87.70;;;;;;5111548;28;20190;-64
2022/04/08 09:00:19;;;;;;;4.67;1.00;;;10.60;89.70;;;;;;5111126;28;20569;-64
2022/04/08 09:02:48;;;;;;;1.30;1.00;;;10.30;85.70;;;;;;5110865;28;20150;-64
2022/04/08 09:05:19;;;;;;;2.03;1.00;;;10.40;82.90;;;;;;5111006;28;20211;-66
2022/04/08 09:07:59;;;;;;;1.20;0.77;;;10.30;80.50;;;;;;5110818;28;20159;-65
2022/04/08 09:10:36;;;;;;;2.03;1.00;;;10.40;80.20;;;;;;5111055;28;20185;-65
2022/04/08 09:13:04;;;;;;;1.17;1.07;;;10.50;79.90;;;;;;5111062;28;20256;-63
2022/04/08 09:15:30;;;;;;;1.50;1.27;;;10.50;80.30;;;;;;5112625;28;20571;-68
2022/04/08 09:18:10;;;;;;;1.00;1.00;;;10.40;81.40;;;;;;5115563;28;20281;-66
2022/04/08 09:20:44;;;;;;;1.60;1.03;;;10.40;83.10;;;;;;5110634;28;20181;-67
2022/04/08 09:23:11;;;;;;;3.57;1.80;;;10.60;83.90;;;;;;5110084;28;20153;-65
2022/04/08 09:25:39;;;;;;;1.23;1.13;;;10.80;85.20;;;;;;5109713;28;20186;-65
2022/04/08 09:28:12;;;;;;;2.60;1.23;;;10.60;85.80;;;;;;5110533;28;20582;-66
2022/04/08 09:30:39;;;;;;;2.20;0.93;;;10.50;88.60;;;;;;5110152;28;20166;-66
2022/04/08 09:33:21;;;;;;;0.90;0.90;;;10.40;86.10;;;;;;5110485;28;20204;-66
2022/04/08 09:35:48;;;;;;;2.13;0.90;;;10.50;85.60;;;;;;5091645;28;20626;-64
2022/04/08 09:38:22;;;;;;;0.80;0.80;;;10.70;85.90;;;;;;5069811;28;20203;-65
2022/04/08 09:40:48;;;;;;;0.87;0.70;;;11.10;84.20;;;;;;5069602;28;20622;-66
2022/04/08 09:43:16;;;;;;;1.10;1.00;;;11.20;78.90;;;;;;5069529;28;20164;-67
2022/04/08 09:45:41;;;;;;;0.97;0.97;;;10.90;77.60;;;;;;5068940;28;20217;-67
2022/04/08 09:48:08;;;;;;;1.60;0.90;;;10.80;76.90;;;;;;5063246;28;20176;-71
2022/04/08 09:50:36;;;;;;;1.60;1.00;;;10.90;74.70;;;;;;5055924;28;20168;-65
2022/04/08 09:53:04;;;;;;;3.13;0.80;;;10.80;73.30;;;;;;5055548;28;20148;-63
2022/04/08 09:55:31;;;;;;;1.30;0.87;;;10.80;72.70;;;;;;5055798;28;20164;-64
2022/04/08 09:58:00;;;;;;;1.43;0.80;;;11.10;71.90;;;;;;5055937;28;20501;-66
2022/04/08 10:00:27;;;;;;;0.80;0.80;;;11.20;71.50;;;;;;5056172;28;20176;-64
2022/04/08 10:02:59;;;;;;;1.07;0.93;;;11.50;71.60;;;;;;5056144;28;20209;-65
2022/04/08 10:05:25;;;;;;;3.30;1.17;;;12.00;71.10;;;;;;5055476;28;20247;-65
2022/04/08 10:07:53;;;;;;;3.77;1.00;;;12.20;69.50;;;;;;5055537;28;20178;-66
2022/04/08 10:10:40;;;;;;;1.27;1.07;;;12.10;70.00;;;;;;5055806;28;20159;-65
2022/04/08 10:13:33;;;;;;;4.00;1.00;;;11.90;70.70;;;;;;5055340;28;20168;-65
2022/04/08 10:16:07;;;;;;;1.70;1.13;;;11.80;71.60;;;;;;5055574;28;20199;-65
2022/04/08 10:18:36;;;;;;;1.73;1.10;;;11.40;71.50;;;;;;5056176;28;20213;-63
2022/04/08 10:21:02;;;;;;;2.63;1.07;;;11.30;73.30;;;;;;5055533;28;20461;-68
2022/04/08 10:23:51;;;;;;;14.87;8.77;;;11.40;76.10;;;;;;5055749;28;20171;-67
2022/04/08 10:26:22;;;;;;;18.60;8.50;;;11.30;74.80;;;;;;5055426;28;20190;-64
2022/04/08 10:28:48;;;;;;;1.27;0.93;;;11.20;76.10;;;;;;5055448;28;20188;-65
2022/04/08 10:31:23;;;;;;;4.10;1.10;;;11.10;76.10;;;;;;5055190;28;20205;-64
2022/04/08 10:33:59;;;;;;;2.00;1.10;;;11.00;76.50;;;;;;5055387;28;20165;-66
2022/04/08 10:36:36;;;;;;;1.47;1.07;;;11.10;77.00;;;;;;5055230;28;20323;-64
2022/04/08 10:39:15;;;;;;;1.20;1.00;;;11.10;78.00;;;;;;5055862;28;20191;-64
2022/04/08 10:41:48;;;;;;;5.87;1.00;;;11.10;76.90;;;;;;5042172;28;20180;-66
2022/04/08 10:44:15;;;;;;;2.37;1.30;;;11.30;77.70;;;;;;5040631;28;20176;-65
2022/04/08 10:46:52;;;;;;;4.67;1.37;;;11.40;78.30;;;;;;5055328;28;20170;-64
2022/04/08 10:49:19;;;;;;;1.93;1.30;;;11.40;78.10;;;;;;5054548;28;20255;-65
2022/04/08 10:51:46;;;;;;;4.83;1.70;;;11.50;78.70;;;;;;5054988;28;20171;-65
2022/04/08 10:54:11;;;;;;;1.70;1.60;;;11.50;78.60;;;;;;5055099;28;20213;-65
2022/04/08 10:56:37;;;;;;;3.83;1.40;;;11.40;80.00;;;;;;5054463;28;20364;-65
2022/04/08 10:59:04;;;;;;;8.87;5.40;;;11.20;80.60;;;;;;5054250;28;20232;-65
2022/04/08 11:01:34;;;;;;;7.80;2.30;;;11.40;80.60;;;;;;5054467;28;20172;-65
2022/04/08 11:04:05;;;;;;;3.43;1.50;;;11.60;81.80;;;;;;5054800;28;20160;-64
2022/04/08 11:06:36;;;;;;;4.83;1.50;;;11.90;80.70;;;;;;5036956;28;20246;-64
2022/04/08 11:09:12;;;;;;;3.60;1.93;;;11.70;79.80;;;;;;5054585;28;20176;-64
2022/04/08 11:11:42;;;;;;;2.27;1.60;;;11.70;80.90;;;;;;5054341;28;20215;-65
2022/04/08 11:14:10;;;;;;;2.97;1.40;;;11.60;79.90;;;;;;5054810;28;20172;-65
2022/04/08 11:16:37;;;;;;;3.20;1.30;;;11.50;80.00;;;;;;5054752;28;20597;-65
2022/04/08 11:19:05;;;;;;;4.03;1.60;;;11.50;81.10;;;;;;5055017;28;20212;-64
2022/04/08 11:21:34;;;;;;;1.87;1.40;;;11.70;81.40;;;;;;5054240;28;20160;-65
2022/04/08 11:24:06;;;;;;;1.77;1.30;;;11.80;79.50;;;;;;5054057;28;20187;-66
2022/04/08 11:26:44;;;;;;;1.50;1.40;;;11.80;80.30;;;;;;5054474;28;20249;-65
2022/04/08 11:29:15;;;;;;;3.20;1.40;;;11.70;80.30;;;;;;5036698;28;20176;-64
2022/04/08 11:31:41;;;;;;;7.13;2.70;;;11.80;79.50;;;;;;5054683;28;20152;-66
2022/04/08 11:34:07;;;;;;;3.53;1.50;;;11.90;80.50;;;;;;5036522;28;20622;-65
2022/04/08 11:36:34;;;;;;;2.33;1.27;;;11.90;79.80;;;;;;5054272;28;20270;-65
2022/04/08 11:39:01;;;;;;;1.40;1.30;;;12.20;80.30;;;;;;5054251;28;20191;-63
2022/04/08 11:41:28;;;;;;;2.20;1.40;;;12.10;78.10;;;;;;5054111;28;20171;-64
2022/04/08 11:43:54;;;;;;;2.20;1.57;;;12.30;78.60;;;;;;5054858;28;20251;-66
2022/04/08 11:46:20;;;;;;;2.37;1.40;;;12.20;78.60;;;;;;5054241;28;20186;-64
2022/04/08 11:48:46;;;;;;;2.43;1.47;;;12.10;78.50;;;;;;5054077;28;20590;-64
2022/04/08 11:51:12;;;;;;;2.17;1.40;;;12.00;78.70;;;;;;5053638;28;20166;-65
2022/04/08 11:54:04;;;;;;;2.60;1.87;;;12.20;78.90;;;;;;5053959;28;20178;-64
2022/04/08 11:56:30;;;;;;;6.17;1.80;;;12.20;78.70;;;;;;5031227;28;20222;-64
2022/04/08 11:59:00;;;;;;;47.17;24.40;;;12.30;78.50;;;;;;5053730;28;20160;-65
2022/04/08 12:01:33;;;;;;;6.87;4.20;;;12.50;79.90;;;;;;5053978;28;20161;-65
2022/04/08 12:04:05;;;;;;;3.63;2.40;;;12.70;78.00;;;;;;5054426;28;20178;-63
2022/04/08 12:06:40;;;;;;;1.70;1.57;;;12.30;76.90;;;;;;5039608;28;20176;-64
2022/04/08 12:09:07;;;;;;;3.47;1.67;;;12.10;78.40;;;;;;5057227;28;20661;-66
2022/04/08 12:11:36;;;;;;;2.70;1.60;;;12.20;78.50;;;;;;5053655;28;20172;-64
2022/04/08 12:14:04;;;;;;;3.37;1.57;;;12.40;77.10;;;;;;5053139;28;20164;-65
2022/04/08 12:16:31;;;;;;;1.67;1.43;;;12.40;76.40;;;;;;5035538;28;20207;-64
2022/04/08 12:18:57;;;;;;;4.67;1.33;;;12.30;75.70;;;;;;5054308;28;20156;-65
2022/04/08 12:21:25;;;;;;;3.03;1.70;;;12.10;76.60;;;;;;5053446;28;20164;-66
2022/04/08 12:23:52;;;;;;;1.70;1.60;;;12.40;77.40;;;;;;5053733;28;20211;-67
2022/04/08 12:26:18;;;;;;;3.70;1.60;;;12.50;76.20;;;;;;5053177;28;20197;-66
2022/04/08 12:28:44;;;;;;;3.73;2.03;;;12.50;76.50;;;;;;5053285;28;20204;-64
2022/04/08 12:31:17;;;;;;;3.57;2.30;;;12.50;76.20;;;;;;5053608;28;20213;-64
2022/04/08 12:33:44;;;;;;;6.27;2.00;;;12.40;76.20;;;;;;5053374;28;20211;-67
2022/04/08 12:36:11;;;;;;;2.57;1.97;;;12.50;76.50;;;;;;5052856;28;20243;-64
2022/04/08 12:38:42;;;;;;;8.27;4.07;;;12.50;76.20;;;;;;5053260;28;20175;-69
2022/04/08 12:41:10;;;;;;;2.10;1.73;;;12.30;76.80;;;;;;5053011;28;20164;-69
2022/04/08 12:43:36;;;;;;;2.50;1.87;;;12.50;75.60;;;;;;5053724;28;20179;-63
2022/04/08 12:46:01;;;;;;;23.70;13.80;;;12.70;76.00;;;;;;5053773;28;20167;-67
2022/04/08 12:48:27;;;;;;;18.23;9.50;;;12.80;75.80;;;;;;5036348;28;20212;-67
2022/04/08 12:50:54;;;;;;;2.30;1.67;;;12.60;74.30;;;;;;5053939;28;20259;-65
2022/04/08 12:53:20;;;;;;;2.27;1.47;;;12.50;73.10;;;;;;5036630;28;20187;-65
2022/04/08 12:55:45;;;;;;;1.87;1.40;;;12.60;74.20;;;;;;5053938;28;20581;-65